Tobruk, Libya
Current Conditions -  °F | °C
As of 9:00 AM on Wednesday 28 Jan 2015 (Local Time) from HEMM Reporting Station
Clear Clear  
Wind Chill: 54°   Ceiling: Unl
Heat Index: 54°   Visibility: 4mi
Dew Point: 32°   Wind: 23mph
Humidity: 44%   Direction: 260°W
Pressure: 29.97"   Gusts: NA
Location:  32.08°N, 23.98°E
Report Text: HEMM 280600Z 26020KT 6000 NSC 12/M00 Q1015 NOSIG
Loading
Personal Weather Stations






























Interactive Weather Map New forecast layout! Learn more

10-Day Weather Forecast

Advertisements
Track Severe Weather on mobile